Terminal Aerodrome Forecast
Issued by NWS

Home | Current Version | Previous Version | Text Only | Print | Product List | Glossary On
Versions: 1 2 3 4 5 6 7 8 9 10 11 12 13 14 15 16
974
FTUS43 KMQT 060535
TAFSAW
TAF
KSAW 060535Z 0606/0706 20006KT P6SM FEW200 WS005/22030KT
     FM061000 20006KT P6SM FEW200 WS005/27030KT
     FM061300 20008KT P6SM FEW200
     FM061900 19012G19KT P6SM FEW200
     FM070300 23008KT P6SM VCSH BKN100
     FM070500 30012G19KT P6SM VCSH BKN070=

USA.gov is the U.S. government's official web portal to all federal, state and local government web resources and services.